createdAt,value
2018-08-23T06:00:09.877Z,10.78
2018-08-23T06:02:39.548Z,21.75
2018-08-23T06:05:09.056Z,21.02
2018-08-23T06:07:38.685Z,25.70
2018-08-23T06:10:08.302Z,19.10
2018-08-23T06:12:37.978Z,22.20
2018-08-23T06:15:08.041Z,14.60
2018-08-23T06:17:37.822Z,15.07
2018-08-23T06:20:08.029Z,16.37
2018-08-23T06:22:37.663Z,19.47
2018-08-23T06:25:06.811Z,17.23
2018-08-23T06:27:36.073Z,18.73
2018-08-23T06:30:05.737Z,17.63
2018-08-23T06:32:34.841Z,19.93
2018-08-23T06:35:04.190Z,17.17
2018-08-23T06:37:33.247Z,17.47
2018-08-23T06:40:02.421Z,17.37
2018-08-23T06:42:45.097Z,13.57
2018-08-23T06:45:14.241Z,20.10
2018-08-23T06:47:46.279Z,16.77
2018-08-23T06:50:15.351Z,17.67
2018-08-23T06:52:48.669Z,18.07
2018-08-23T06:55:21.962Z,14.35
2018-08-23T06:57:55.253Z,17.80
2018-08-23T07:00:25.447Z,15.13
2018-08-23T07:02:54.715Z,16.60
2018-08-23T07:05:23.954Z,17.40
2018-08-23T07:07:53.266Z,18.10
2018-08-23T07:10:22.302Z,17.45
2018-08-23T07:12:51.427Z,18.57
2018-08-23T07:15:20.571Z,19.80
2018-08-23T07:17:49.726Z,14.50
2018-08-23T07:20:18.733Z,19.70
2018-08-23T07:22:48.789Z,17.67
2018-08-23T07:25:19.328Z,19.47
2018-08-23T07:27:48.469Z,19.62
2018-08-23T07:30:20.800Z,19.62
2018-08-23T07:32:51.287Z,18.85
2018-08-23T07:35:21.511Z,20.52
2018-08-23T07:37:51.891Z,24.75
2018-08-23T07:40:22.222Z,21.27
2018-08-23T07:42:53.066Z,19.55
2018-08-23T07:45:22.363Z,21.25
2018-08-23T07:47:53.450Z,18.82
2018-08-23T07:50:22.660Z,20.68
2018-08-23T07:52:53.451Z,22.73
2018-08-23T07:55:22.466Z,22.17
2018-08-23T07:57:52.519Z,20.57
2018-08-23T08:00:26.600Z,21.00
2018-08-23T08:02:56.417Z,18.48
2018-08-23T08:05:29.992Z,22.87
2018-08-23T08:07:59.195Z,21.20
2018-08-23T08:10:33.480Z,20.15
2018-08-23T08:13:02.567Z,19.80
2018-08-23T08:15:31.682Z,19.45
2018-08-23T08:18:05.755Z,23.75
2018-08-23T08:20:35.380Z,20.90
2018-08-23T08:23:04.439Z,21.27
2018-08-23T08:25:33.475Z,19.40
2018-08-23T08:28:02.677Z,22.30
2018-08-23T08:30:42.080Z,22.67
2018-08-23T08:33:16.383Z,20.08
2018-08-23T08:35:46.602Z,19.00
2018-08-23T08:38:15.769Z,19.45
2018-08-23T08:40:45.154Z,21.23
2018-08-23T08:43:14.418Z,18.20
2018-08-23T08:45:43.517Z,18.40
2018-08-23T08:48:19.241Z,17.70
2018-08-23T08:51:01.276Z,22.07
2018-08-23T08:53:31.349Z,18.77
2018-08-23T08:56:00.555Z,17.23
2018-08-23T08:58:29.844Z,17.48
2018-08-23T09:00:59.248Z,17.80
2018-08-23T09:03:32.809Z,15.63
2018-08-23T09:06:03.608Z,16.57
2018-08-23T09:08:32.664Z,17.12
2018-08-23T09:11:01.766Z,15.78
2018-08-23T09:13:35.012Z,16.30
2018-08-23T09:16:08.206Z,15.48
2018-08-23T09:18:39.831Z,14.58
2018-08-23T09:21:08.971Z,15.80
2018-08-23T09:23:38.114Z,16.67
2018-08-23T09:26:07.481Z,16.45
2018-08-23T09:28:37.102Z,15.85
2018-08-23T09:31:06.856Z,15.58
2018-08-23T09:33:36.431Z,16.07
2018-08-23T09:36:05.661Z,15.63
2018-08-23T09:38:34.724Z,18.15
2018-08-23T09:41:03.883Z,15.15
2018-08-23T09:43:34.190Z,15.58
2018-08-23T09:46:04.611Z,16.97
2018-08-23T09:48:33.821Z,15.30
2018-08-23T09:51:07.762Z,14.85
2018-08-23T09:53:36.827Z,13.43
2018-08-23T09:56:06.242Z,15.55
2018-08-23T09:58:39.655Z,16.00
2018-08-23T10:01:12.972Z,12.80
2018-08-23T10:03:46.493Z,15.05
2018-08-23T10:06:21.568Z,15.38
2018-08-23T10:08:56.691Z,16.30
2018-08-23T10:11:30.273Z,15.83
2018-08-23T10:14:03.650Z,15.70
2018-08-23T10:16:36.931Z,15.00
2018-08-23T10:19:10.201Z,13.80
2018-08-23T10:21:43.971Z,14.05
2018-08-23T10:24:17.417Z,14.90
2018-08-23T10:26:47.036Z,13.62
2018-08-23T10:29:16.484Z,12.10
2018-08-23T10:31:45.833Z,11.88
2018-08-23T10:34:14.868Z,14.35
2018-08-23T10:36:44.575Z,12.07
2018-08-23T10:39:14.756Z,14.10
2018-08-23T10:41:44.246Z,13.62
2018-08-23T10:44:13.576Z,13.83
2018-08-23T10:46:46.979Z,14.55
2018-08-23T10:49:16.369Z,13.43
2018-08-23T10:51:45.970Z,12.13
2018-08-23T10:54:15.383Z,12.15
2018-08-23T10:56:45.097Z,14.45
2018-08-23T10:59:14.615Z,15.80
2018-08-23T11:01:44.168Z,14.68
2018-08-23T11:04:13.416Z,12.50
2018-08-23T11:06:46.678Z,16.27
2018-08-23T11:09:20.405Z,16.37
2018-08-23T11:11:49.986Z,16.20
2018-08-23T11:14:23.266Z,15.63
2018-08-23T11:16:56.862Z,14.50
2018-08-23T11:19:30.073Z,14.28
2018-08-23T11:21:59.735Z,15.78
2018-08-23T11:24:28.966Z,17.65
2018-08-23T11:26:58.661Z,15.38
2018-08-23T11:29:28.443Z,16.10
2018-08-23T11:31:57.865Z,16.77
2018-08-23T11:34:27.257Z,16.55
2018-08-23T11:36:56.494Z,17.35
2018-08-23T11:39:25.558Z,18.82
2018-08-23T11:41:54.862Z,18.62
2018-08-23T11:44:24.325Z,17.67
2018-08-23T11:46:53.815Z,16.27
2018-08-23T11:49:22.957Z,17.85
2018-08-23T11:51:52.105Z,16.67
2018-08-23T11:54:21.907Z,17.62
2018-08-23T11:56:50.991Z,16.57
2018-08-23T11:59:20.248Z,16.37
2018-08-23T12:01:49.383Z,15.98
2018-08-23T12:04:18.554Z,16.25
2018-08-23T12:06:48.109Z,16.12
2018-08-23T12:09:17.286Z,15.20
2018-08-23T12:11:46.413Z,15.35
2018-08-23T12:14:15.533Z,14.53
2018-08-23T12:16:44.875Z,14.60
2018-08-23T12:19:13.881Z,14.20
2018-08-23T12:21:43.027Z,14.55
2018-08-23T12:24:12.110Z,13.45
2018-08-23T12:26:41.224Z,13.85
2018-08-23T12:29:10.882Z,13.32
2018-08-23T12:31:40.279Z,13.00
2018-08-23T12:34:10.810Z,12.00
2018-08-23T12:36:43.977Z,12.98
2018-08-23T12:39:17.275Z,11.95
2018-08-23T12:41:50.609Z,11.08
2018-08-23T12:44:19.933Z,12.53
2018-08-23T12:46:53.298Z,11.88
2018-08-23T12:49:22.857Z,12.43
2018-08-23T12:51:52.279Z,13.28
2018-08-23T12:54:21.716Z,12.13
2018-08-23T12:56:51.305Z,13.75
2018-08-23T12:59:20.886Z,13.62
2018-08-23T13:01:50.363Z,13.38
2018-08-23T13:04:19.617Z,14.93
2018-08-23T13:06:48.819Z,15.32
2018-08-23T13:09:18.485Z,13.58
2018-08-23T13:11:47.716Z,14.03
2018-08-23T13:14:17.410Z,16.05
2018-08-23T13:16:46.553Z,16.97
2018-08-23T13:19:16.288Z,15.00
2018-08-23T13:21:45.874Z,14.70
2018-08-23T13:24:15.425Z,15.58
2018-08-23T13:26:46.308Z,16.40
2018-08-23T13:29:15.590Z,16.00
2018-08-23T13:31:45.672Z,14.30
2018-08-23T13:34:15.359Z,15.58
2018-08-23T13:36:44.469Z,14.43
2018-08-23T13:39:14.180Z,13.98
2018-08-23T13:41:43.276Z,14.00
2018-08-23T13:44:12.790Z,12.55
2018-08-23T13:46:41.835Z,13.35
2018-08-23T13:49:10.917Z,12.40
2018-08-23T13:51:40.244Z,13.15
2018-08-23T13:54:09.348Z,12.85
2018-08-23T13:56:38.553Z,12.78
2018-08-23T13:59:07.945Z,11.88
2018-08-23T14:01:37.214Z,11.90
2018-08-23T14:04:06.559Z,11.60
2018-08-23T14:06:35.669Z,11.22
2018-08-23T14:09:06.194Z,11.70
2018-08-23T14:11:35.327Z,12.10
2018-08-23T14:14:04.648Z,11.43
2018-08-23T14:16:34.046Z,11.30
2018-08-23T14:19:03.603Z,10.72
2018-08-23T14:21:32.880Z,10.80
2018-08-23T14:24:02.199Z,11.15
2018-08-23T14:26:31.554Z,11.48
2018-08-23T14:29:00.670Z,10.15
2018-08-23T14:31:29.720Z,9.40
2018-08-23T14:33:58.949Z,10.68
2018-08-23T14:36:28.248Z,8.93
2018-08-23T14:38:57.519Z,9.23
2018-08-23T14:41:26.784Z,9.13
2018-08-23T14:43:55.887Z,9.35
2018-08-23T14:46:29.177Z,7.97
2018-08-23T14:48:58.327Z,7.83
2018-08-23T14:51:27.631Z,8.00
2018-08-23T14:53:56.873Z,9.15
2018-08-23T14:56:30.409Z,8.18
2018-08-23T14:58:59.601Z,7.83
2018-08-23T15:01:29.288Z,8.25
2018-08-23T15:03:58.449Z,7.22
2018-08-23T15:06:28.060Z,8.60
